Time;durP1;ratioP1;P1;durP2;ratioP2;P2;SDS_P1;SDS_P2;PMS_P1;PMS_P2;Temp;Humidity;BMP_temperature;BMP_pressure;BME280_temperature;BME280_humidity;BME280_pressure;Samples;Min_cycle;Max_cycle;Signal;HPM_P1;HPM_P2
2021/08/07 00:01:24;;;;;;;5.35;4.95;;;14.90;99.90;;;;;;4991109;28;20038;-48
2021/08/07 00:03:49;;;;;;;5.30;4.35;;;14.90;99.90;;;;;;4991285;28;20037;-47
2021/08/07 00:06:15;;;;;;;5.07;4.68;;;14.80;99.90;;;;;;4980703;28;20014;-48
2021/08/07 00:08:41;;;;;;;8.43;5.28;;;14.90;99.90;;;;;;4987388;28;20026;-46
2021/08/07 00:11:07;;;;;;;8.88;5.55;;;14.90;99.90;;;;;;4991202;28;20554;-50
2021/08/07 00:13:32;;;;;;;5.40;4.70;;;14.80;99.90;;;;;;4988140;28;20414;-47
2021/08/07 00:15:58;;;;;;;6.55;4.85;;;14.80;99.90;;;;;;4990020;28;20030;-47
2021/08/07 00:18:24;;;;;;;7.07;5.53;;;14.80;99.90;;;;;;4985231;28;20042;-46
2021/08/07 00:20:49;;;;;;;5.32;4.82;;;14.80;99.90;;;;;;4989963;28;20030;-51
2021/08/07 00:23:15;;;;;;;5.95;5.07;;;14.80;99.90;;;;;;5002671;28;20046;-47
2021/08/07 00:25:41;;;;;;;6.05;4.75;;;14.70;99.90;;;;;;4986768;28;20043;-48
2021/08/07 00:28:07;;;;;;;5.43;4.93;;;14.80;99.90;;;;;;4991210;28;20080;-50
2021/08/07 00:30:32;;;;;;;5.22;4.60;;;14.70;99.90;;;;;;4987591;28;20027;-51
2021/08/07 00:32:58;;;;;;;5.43;4.82;;;14.70;99.90;;;;;;4990194;28;20037;-50
2021/08/07 00:35:23;;;;;;;5.50;4.75;;;14.70;99.90;;;;;;4986563;28;20477;-49
2021/08/07 00:37:49;;;;;;;5.60;5.00;;;14.70;99.90;;;;;;4988296;28;20725;-50
2021/08/07 00:40:15;;;;;;;7.85;5.50;;;14.70;99.90;;;;;;4987404;28;20704;-51
2021/08/07 00:42:41;;;;;;;5.78;5.13;;;14.60;99.90;;;;;;4987010;28;20019;-47
2021/08/07 00:45:07;;;;;;;5.00;4.50;;;14.70;99.90;;;;;;4983711;28;20569;-47
2021/08/07 00:47:48;;;;;;;4.85;4.43;;;14.60;99.90;;;;;;4987385;28;20015;-50
2021/08/07 00:50:14;;;;;;;4.90;4.45;;;14.60;99.90;;;;;;4988258;28;20388;-46
2021/08/07 00:52:41;;;;;;;8.07;5.15;;;14.60;99.90;;;;;;4986679;28;20098;-47
2021/08/07 00:55:07;;;;;;;5.50;4.55;;;14.60;99.90;;;;;;4988734;28;20133;-50
2021/08/07 00:57:33;;;;;;;6.15;4.82;;;14.60;99.90;;;;;;4984911;28;20030;-51
2021/08/07 00:59:59;;;;;;;7.47;5.68;;;14.60;99.90;;;;;;4985350;28;20089;-49
2021/08/07 01:02:26;;;;;;;8.88;5.32;;;14.60;99.90;;;;;;4987992;28;20030;-52
2021/08/07 01:05:01;;;;;;;8.45;5.63;;;14.60;99.90;;;;;;4989029;28;20027;-53
2021/08/07 01:07:56;;;;;;;13.43;5.75;;;14.50;99.90;;;;;;4986040;28;20014;-50
2021/08/07 01:10:28;;;;;;;5.82;5.32;;;14.50;99.90;;;;;;4988403;28;20030;-49
2021/08/07 01:13:06;;;;;;;5.85;5.25;;;14.50;99.90;;;;;;4989760;28;20133;-52
2021/08/07 01:15:35;;;;;;;7.05;5.25;;;14.40;99.90;;;;;;4988039;28;20084;-53
2021/08/07 01:18:02;;;;;;;9.60;5.75;;;14.40;99.90;;;;;;4988703;28;20034;-47
2021/08/07 01:20:35;;;;;;;5.55;4.95;;;14.40;99.90;;;;;;4986166;28;20018;-51
2021/08/07 01:23:26;;;;;;;8.02;5.22;;;14.40;99.90;;;;;;4988855;28;20225;-52
2021/08/07 01:25:57;;;;;;;5.35;4.63;;;14.40;99.90;;;;;;4986920;28;20030;-52
2021/08/07 01:28:31;;;;;;;10.02;5.65;;;14.40;99.90;;;;;;4983439;28;20019;-48
2021/08/07 01:30:57;;;;;;;4.80;4.40;;;14.40;99.90;;;;;;4987881;28;20053;-51
2021/08/07 01:33:26;;;;;;;7.28;4.95;;;14.40;99.90;;;;;;4992416;28;20030;-48
2021/08/07 01:35:52;;;;;;;8.70;4.88;;;14.30;99.90;;;;;;4983255;28;20094;-51
2021/08/07 01:38:18;;;;;;;7.25;5.05;;;14.40;99.90;;;;;;4990453;28;20046;-53
2021/08/07 01:40:44;;;;;;;10.18;5.72;;;14.30;99.90;;;;;;4984699;28;20035;-52
2021/08/07 01:43:10;;;;;;;4.97;4.57;;;14.30;99.90;;;;;;4986114;28;20186;-50
2021/08/07 01:45:36;;;;;;;12.85;5.63;;;14.30;99.90;;;;;;4983878;28;20022;-47
2021/08/07 01:48:20;;;;;;;7.15;5.18;;;14.30;99.90;;;;;;4986294;28;20396;-51
2021/08/07 01:51:01;;;;;;;6.80;5.72;;;14.30;99.90;;;;;;4987725;28;20110;-50
2021/08/07 01:53:29;;;;;;;5.57;5.07;;;14.30;99.90;;;;;;4983106;28;20264;-48
2021/08/07 01:56:09;;;;;;;13.05;5.95;;;14.20;99.90;;;;;;4987378;28;20022;-47
2021/08/07 01:58:56;;;;;;;7.50;4.82;;;14.20;99.90;;;;;;4984504;28;20030;-52
2021/08/07 02:01:24;;;;;;;;;;;14.20;99.90;;;;;;4987877;28;20027;-47
2021/08/07 02:03:52;;;;;;;5.25;4.47;;;14.20;99.90;;;;;;4988937;28;20386;-49
2021/08/07 02:06:18;;;;;;;5.57;5.07;;;14.20;99.90;;;;;;4977165;28;20038;-50
2021/08/07 02:08:44;;;;;;;10.40;5.88;;;14.20;99.90;;;;;;4985577;28;20048;-50
2021/08/07 02:11:11;;;;;;;8.77;5.60;;;14.20;99.90;;;;;;4989215;28;20030;-50
2021/08/07 02:13:38;;;;;;;7.78;5.60;;;14.20;99.90;;;;;;4986041;28;20026;-51
2021/08/07 02:16:04;;;;;;;4.95;4.53;;;14.20;99.90;;;;;;4986233;28;20029;-47
2021/08/07 02:18:31;;;;;;;6.35;5.10;;;14.20;99.90;;;;;;4985048;28;20042;-47
2021/08/07 02:20:57;;;;;;;9.13;5.35;;;14.20;99.90;;;;;;4987456;28;20022;-53
2021/08/07 02:23:23;;;;;;;5.45;4.95;;;14.20;99.90;;;;;;4985991;28;20053;-51
2021/08/07 02:25:53;;;;;;;5.65;5.07;;;14.20;99.90;;;;;;4987479;28;20524;-47
2021/08/07 02:28:21;;;;;;;7.05;5.90;;;14.20;99.90;;;;;;4988611;28;20022;-48
2021/08/07 02:30:47;;;;;;;6.18;4.78;;;14.20;99.90;;;;;;4989098;28;20543;-47
2021/08/07 02:33:15;;;;;;;5.55;5.13;;;14.20;99.90;;;;;;4983304;28;20023;-50
2021/08/07 02:35:41;;;;;;;5.03;4.30;;;14.30;99.90;;;;;;4987061;28;20161;-46
2021/08/07 02:38:07;;;;;;;5.07;4.38;;;14.20;99.90;;;;;;4983363;28;20030;-49
2021/08/07 02:40:34;;;;;;;5.75;4.63;;;14.30;99.90;;;;;;4988458;28;20036;-51
2021/08/07 02:43:00;;;;;;;4.72;4.30;;;14.30;99.90;;;;;;4986671;28;20547;-49
2021/08/07 02:45:27;;;;;;;5.30;4.78;;;14.20;99.90;;;;;;4982554;28;20018;-49
2021/08/07 02:47:53;;;;;;;4.93;4.50;;;14.30;99.90;;;;;;4987215;28;20575;-50
2021/08/07 02:50:19;;;;;;;6.80;4.60;;;14.20;99.90;;;;;;4984191;28;20105;-47
2021/08/07 02:52:46;;;;;;;5.80;5.30;;;14.20;99.90;;;;;;4986232;28;20018;-47
2021/08/07 02:55:11;;;;;;;7.38;4.93;;;14.30;99.90;;;;;;4982875;28;20026;-51
2021/08/07 02:57:37;;;;;;;5.93;5.10;;;14.20;99.90;;;;;;4985524;28;20101;-49
2021/08/07 03:00:04;;;;;;;7.53;4.95;;;14.20;99.90;;;;;;4987455;28;20069;-47
2021/08/07 03:02:29;;;;;;;9.52;5.53;;;14.20;99.90;;;;;;4984407;28;20450;-47
2021/08/07 03:04:55;;;;;;;5.60;5.10;;;14.20;99.90;;;;;;4985936;28;20065;-49
2021/08/07 03:07:21;;;;;;;6.47;4.47;;;14.20;99.90;;;;;;4981993;28;20424;-50
2021/08/07 03:09:46;;;;;;;7.72;4.57;;;14.20;99.90;;;;;;4985604;28;20098;-50
2021/08/07 03:12:12;;;;;;;4.97;4.55;;;14.20;99.90;;;;;;4988056;28;20054;-49
2021/08/07 03:14:38;;;;;;;7.03;4.68;;;14.20;99.90;;;;;;4984664;28;20356;-48
2021/08/07 03:17:04;;;;;;;5.38;4.97;;;14.20;99.90;;;;;;4986800;28;20125;-50
2021/08/07 03:19:30;;;;;;;6.57;4.97;;;14.20;99.90;;;;;;4984168;28;20026;-47
2021/08/07 03:21:56;;;;;;;8.48;4.72;;;14.20;99.90;;;;;;4986173;28;20026;-50
2021/08/07 03:24:21;;;;;;;5.82;4.80;;;14.20;99.90;;;;;;4983042;28;20030;-49
2021/08/07 03:26:47;;;;;;;5.78;5.32;;;14.20;99.90;;;;;;4985404;28;20034;-51
2021/08/07 03:29:13;;;;;;;4.97;4.47;;;14.20;99.90;;;;;;4987395;28;20381;-49
2021/08/07 03:31:38;;;;;;;5.30;4.90;;;14.20;99.90;;;;;;4984687;28;20101;-49
2021/08/07 03:34:04;;;;;;;9.93;5.10;;;14.20;99.90;;;;;;4986725;28;20034;-48
2021/08/07 03:36:30;;;;;;;5.20;4.70;;;14.10;99.90;;;;;;4982470;28;20118;-47
2021/08/07 03:38:55;;;;;;;6.43;5.53;;;14.20;99.90;;;;;;4984213;28;20030;-54
2021/08/07 03:41:21;;;;;;;5.43;4.88;;;14.10;99.90;;;;;;4988246;28;20509;-51
2021/08/07 03:43:46;;;;;;;7.70;5.25;;;14.20;99.90;;;;;;4978141;28;20355;-51
2021/08/07 03:46:12;;;;;;;6.03;5.00;;;14.10;99.90;;;;;;4995088;28;20497;-50
2021/08/07 03:48:37;;;;;;;5.22;4.82;;;14.10;99.90;;;;;;4983882;28;20499;-52
2021/08/07 03:51:03;;;;;;;5.88;5.10;;;14.10;99.90;;;;;;4985785;28;20514;-48
2021/08/07 03:53:29;;;;;;;8.20;4.95;;;14.10;99.90;;;;;;4985734;28;20022;-49
2021/08/07 03:55:54;;;;;;;5.00;4.50;;;14.10;99.90;;;;;;4987501;28;20031;-51
2021/08/07 03:58:20;;;;;;;5.63;5.10;;;14.10;99.90;;;;;;4991313;28;20485;-51
2021/08/07 04:00:45;;;;;;;5.13;4.70;;;14.10;99.90;;;;;;4987706;28;20057;-48
2021/08/07 04:03:11;;;;;;;6.78;5.50;;;14.10;99.90;;;;;;4989916;28;20026;-48
2021/08/07 04:05:37;;;;;;;6.15;5.35;;;14.10;99.90;;;;;;4985152;28;20026;-50
2021/08/07 04:08:10;;;;;;;6.20;5.55;;;14.10;99.90;;;;;;4979225;28;20118;-50
2021/08/07 04:10:37;;;;;;;5.50;5.00;;;14.10;99.90;;;;;;4991630;28;20045;-49
2021/08/07 04:13:03;;;;;;;9.68;5.85;;;14.10;99.90;;;;;;4987107;28;20057;-51
2021/08/07 04:15:29;;;;;;;7.38;5.07;;;14.10;99.90;;;;;;4990102;28;20058;-47
2021/08/07 04:17:55;;;;;;;7.32;6.07;;;14.10;99.90;;;;;;4986667;28;20065;-50
2021/08/07 04:20:21;;;;;;;6.90;6.20;;;14.10;99.90;;;;;;4990178;28;20397;-50
2021/08/07 04:22:46;;;;;;;6.57;5.97;;;14.10;99.90;;;;;;4986410;28;20664;-52
2021/08/07 04:25:12;;;;;;;6.20;5.60;;;14.10;99.90;;;;;;4988384;28;20015;-47
2021/08/07 04:27:38;;;;;;;5.22;4.70;;;14.10;99.90;;;;;;4991105;28;20026;-47
2021/08/07 04:30:06;;;;;;;6.45;5.88;;;14.10;99.90;;;;;;4986761;28;20543;-49
2021/08/07 04:32:32;;;;;;;7.82;5.82;;;14.20;99.90;;;;;;4990655;28;20030;-50
2021/08/07 04:34:57;;;;;;;6.47;5.88;;;14.20;99.90;;;;;;4989153;28;20449;-48
2021/08/07 04:37:23;;;;;;;6.55;5.95;;;14.20;99.90;;;;;;4983191;28;20027;-51
2021/08/07 04:39:49;;;;;;;6.07;5.47;;;14.20;99.90;;;;;;4990368;28;20030;-47
2021/08/07 04:42:14;;;;;;;6.40;5.80;;;14.20;99.90;;;;;;4987573;28;20106;-49
2021/08/07 04:44:40;;;;;;;7.97;6.35;;;14.30;99.90;;;;;;4983348;28;20096;-47
2021/08/07 04:47:05;;;;;;;6.82;6.13;;;14.30;99.90;;;;;;4989363;28;20033;-48
2021/08/07 04:49:35;;;;;;;8.02;6.57;;;14.30;99.90;;;;;;4984843;28;20029;-46
2021/08/07 04:52:01;;;;;;;7.57;6.15;;;14.40;99.90;;;;;;4989860;28;20033;-46
2021/08/07 04:54:27;;;;;;;8.45;6.40;;;14.40;99.90;;;;;;4983385;28;20029;-48
2021/08/07 04:56:52;;;;;;;7.13;6.43;;;14.40;99.90;;;;;;4988099;28;20380;-50
2021/08/07 04:59:18;;;;;;;9.18;6.78;;;14.50;99.90;;;;;;4986815;28;20026;-47
2021/08/07 05:01:44;;;;;;;8.25;7.45;;;14.50;99.90;;;;;;4981080;28;20028;-48
2021/08/07 05:04:10;;;;;;;10.57;7.68;;;14.50;99.90;;;;;;4987735;28;20038;-46
2021/08/07 05:06:36;;;;;;;13.93;8.05;;;14.50;99.90;;;;;;4985708;28;20528;-50
2021/08/07 05:09:02;;;;;;;8.30;7.45;;;14.60;99.90;;;;;;4990669;28;20023;-47
2021/08/07 05:11:28;;;;;;;8.77;7.63;;;14.60;99.90;;;;;;4997572;28;20014;-47
2021/08/07 05:13:53;;;;;;;13.70;7.93;;;14.70;99.90;;;;;;4990727;28;20539;-46
2021/08/07 05:16:19;;;;;;;9.38;8.30;;;14.80;99.90;;;;;;4989506;28;20057;-46
2021/08/07 05:18:44;;;;;;;8.63;7.78;;;14.80;99.90;;;;;;5008300;23;20062;-51
2021/08/07 05:21:10;;;;;;;9.07;8.27;;;14.80;99.90;;;;;;4967837;28;20035;-50
2021/08/07 05:23:36;;;;;;;9.50;8.57;;;14.90;99.90;;;;;;4966331;28;20035;-50
2021/08/07 05:26:01;;;;;;;9.32;8.02;;;14.90;99.90;;;;;;4970611;28;20545;-51
2021/08/07 05:28:27;;;;;;;14.13;9.80;;;15.00;99.90;;;;;;4967541;28;20639;-52
2021/08/07 05:30:52;;;;;;;11.95;9.13;;;15.00;99.90;;;;;;4969712;28;20026;-50
2021/08/07 05:33:18;;;;;;;11.32;8.00;;;15.10;99.90;;;;;;4971061;28;20015;-52
2021/08/07 05:35:43;;;;;;;10.20;9.20;;;15.10;99.90;;;;;;4969359;28;20107;-51
2021/08/07 05:38:09;;;;;;;11.52;9.18;;;15.20;99.90;;;;;;4970693;28;20038;-53
2021/08/07 05:40:34;;;;;;;11.05;9.00;;;15.20;99.90;;;;;;4970762;28;20592;-53
2021/08/07 05:43:00;;;;;;;9.65;8.75;;;15.30;99.90;;;;;;4969496;28;20031;-50
2021/08/07 05:45:25;;;;;;;14.02;8.95;;;15.30;99.90;;;;;;4976559;28;20029;-49
2021/08/07 05:47:51;;;;;;;13.30;9.57;;;15.30;99.90;;;;;;4970472;28;20038;-51
2021/08/07 05:50:17;;;;;;;10.60;9.23;;;15.40;99.90;;;;;;4970488;28;20011;-49
2021/08/07 05:52:43;;;;;;;9.18;8.25;;;15.50;99.90;;;;;;4970340;28;20165;-52
2021/08/07 05:55:09;;;;;;;10.20;8.63;;;15.50;99.90;;;;;;4970129;28;20029;-53
2021/08/07 05:57:34;;;;;;;12.10;9.63;;;15.60;99.90;;;;;;4970372;28;20027;-49
2021/08/07 06:00:02;;;;;;;10.63;9.63;;;15.70;99.90;;;;;;4969634;28;20694;-50
2021/08/07 06:02:32;;;;;;;11.57;10.38;;;15.70;99.90;;;;;;4968853;28;20038;-49
2021/08/07 06:04:58;;;;;;;12.27;9.13;;;15.80;99.90;;;;;;4968380;28;20027;-51
2021/08/07 06:07:23;;;;;;;9.38;8.38;;;15.90;99.90;;;;;;4970329;28;20102;-50
2021/08/07 06:09:49;;;;;;;10.30;8.52;;;15.90;99.90;;;;;;4969821;28;20524;-49
2021/08/07 06:12:14;;;;;;;10.32;9.23;;;16.00;99.90;;;;;;4969583;28;20046;-53
2021/08/07 06:14:40;;;;;;;10.80;8.55;;;16.00;99.90;;;;;;4969140;28;20026;-48
2021/08/07 06:17:05;;;;;;;11.43;9.30;;;16.10;99.90;;;;;;4970029;28;20019;-49
2021/08/07 06:19:31;;;;;;;9.38;8.52;;;16.10;99.90;;;;;;4969533;28;20039;-51
2021/08/07 06:21:56;;;;;;;8.85;7.43;;;16.10;99.90;;;;;;4969783;28;20042;-51
2021/08/07 06:24:22;;;;;;;9.35;8.45;;;16.20;99.90;;;;;;4969501;28;20022;-54
2021/08/07 06:26:48;;;;;;;13.00;7.78;;;16.20;99.90;;;;;;4969316;28;20085;-50
2021/08/07 06:29:13;;;;;;;10.38;7.47;;;16.20;99.90;;;;;;4968233;28;20076;-49
2021/08/07 06:31:39;;;;;;;9.45;8.25;;;16.30;99.90;;;;;;4969630;28;20045;-53
2021/08/07 06:34:04;;;;;;;8.75;7.72;;;16.30;99.90;;;;;;4969433;28;20033;-49
2021/08/07 06:36:32;;;;;;;11.52;8.15;;;16.40;99.90;;;;;;4955881;28;20092;-50
2021/08/07 06:38:58;;;;;;;8.30;7.53;;;16.60;99.90;;;;;;4952720;28;20039;-50
2021/08/07 06:41:23;;;;;;;8.95;7.88;;;16.70;99.90;;;;;;4952435;28;20023;-49
2021/08/07 06:43:49;;;;;;;10.93;8.50;;;16.80;99.90;;;;;;4968358;28;20035;-50
2021/08/07 06:46:14;;;;;;;8.23;7.53;;;17.00;99.90;;;;;;4968398;28;20027;-50
2021/08/07 06:48:40;;;;;;;10.30;7.47;;;17.10;99.90;;;;;;4967468;28;20493;-48
2021/08/07 06:51:06;;;;;;;8.77;7.10;;;17.20;99.90;;;;;;4966379;28;20026;-50
2021/08/07 06:53:32;;;;;;;9.18;7.35;;;17.30;99.90;;;;;;4967864;28;20102;-50
2021/08/07 06:55:58;;;;;;;9.68;7.60;;;17.30;99.90;;;;;;4967393;28;20027;-51
2021/08/07 06:58:23;;;;;;;17.83;13.70;;;17.30;99.90;;;;;;4968166;28;20504;-50
2021/08/07 07:00:49;;;;;;;7.90;7.05;;;17.30;99.90;;;;;;4967799;28;20022;-50
2021/08/07 07:03:14;;;;;;;8.13;7.00;;;17.30;99.90;;;;;;4969056;28;20022;-50
2021/08/07 07:05:40;;;;;;;8.43;6.20;;;17.30;99.90;;;;;;4967586;28;20027;-53
2021/08/07 07:08:06;;;;;;;7.88;6.07;;;17.30;99.90;;;;;;4969126;28;20441;-53
2021/08/07 07:10:32;;;;;;;7.82;6.43;;;17.20;99.90;;;;;;4968963;28;20022;-50
2021/08/07 07:12:57;;;;;;;9.18;6.57;;;17.20;99.90;;;;;;4968866;28;20034;-49
2021/08/07 07:15:23;;;;;;;8.05;6.38;;;17.20;99.90;;;;;;4969280;28;20507;-50
2021/08/07 07:17:49;;;;;;;11.18;6.88;;;17.40;99.90;;;;;;4969673;28;20038;-49
2021/08/07 07:20:15;;;;;;;7.38;6.35;;;17.50;99.90;;;;;;4967598;28;20098;-49
2021/08/07 07:22:41;;;;;;;8.52;6.45;;;17.60;99.90;;;;;;4969564;28;20037;-53
2021/08/07 07:25:09;;;;;;;6.15;5.55;;;17.70;99.90;;;;;;4967267;28;20470;-50
2021/08/07 07:27:35;;;;;;;6.03;5.30;;;17.70;99.90;;;;;;4970891;28;20029;-50
2021/08/07 07:30:01;;;;;;;7.45;6.15;;;17.80;99.90;;;;;;4970889;28;20027;-51
2021/08/07 07:32:26;;;;;;;8.07;6.10;;;17.90;99.90;;;;;;4972844;28;20019;-49
2021/08/07 07:34:52;;;;;;;12.27;6.05;;;18.00;99.90;;;;;;4973425;28;20098;-54
2021/08/07 07:37:17;;;;;;;7.47;5.85;;;18.00;99.90;;;;;;4973393;28;20046;-49
2021/08/07 07:39:43;;;;;;;5.55;5.00;;;18.10;99.90;;;;;;4973052;28;20027;-49
2021/08/07 07:42:09;;;;;;;6.10;5.50;;;18.10;99.90;;;;;;4973093;28;20063;-50
2021/08/07 07:44:34;;;;;;;8.48;6.28;;;18.20;99.90;;;;;;4979417;28;20027;-50
2021/08/07 07:47:00;;;;;;;6.03;5.13;;;18.20;99.90;;;;;;4971363;28;20266;-52
2021/08/07 07:49:26;;;;;;;6.00;5.05;;;18.20;99.90;;;;;;4971202;28;20365;-51
2021/08/07 07:51:51;;;;;;;9.70;5.55;;;18.30;99.90;;;;;;4972713;28;20033;-51
2021/08/07 07:54:17;;;;;;;5.63;5.07;;;18.30;99.90;;;;;;4972401;28;20422;-51
2021/08/07 07:56:42;;;;;;;5.28;4.78;;;18.20;99.90;;;;;;4971233;28;20098;-49
2021/08/07 07:59:08;;;;;;;8.43;5.57;;;18.10;99.90;;;;;;4973931;28;20509;-52
2021/08/07 08:01:34;;;;;;;6.07;5.10;;;18.00;99.90;;;;;;4973225;28;20037;-50
2021/08/07 08:03:59;;;;;;;6.22;5.53;;;17.90;99.90;;;;;;4972419;28;20065;-54
2021/08/07 08:06:25;;;;;;;7.43;4.95;;;17.90;99.90;;;;;;4972169;28;20041;-51
2021/08/07 08:08:51;;;;;;;6.20;5.18;;;17.80;99.90;;;;;;4971242;28;20027;-53
2021/08/07 08:11:16;;;;;;;5.28;4.78;;;17.80;99.90;;;;;;4971119;28;20019;-52
2021/08/07 08:13:42;;;;;;;6.15;5.55;;;17.80;99.90;;;;;;4972752;28;20030;-55
2021/08/07 08:16:08;;;;;;;5.68;4.40;;;17.80;99.90;;;;;;4972363;28;20023;-52
2021/08/07 08:18:34;;;;;;;4.50;4.10;;;17.70;99.90;;;;;;4972061;28;20023;-55
2021/08/07 08:21:01;;;;;;;7.00;4.82;;;17.80;99.90;;;;;;4972606;28;20031;-52
2021/08/07 08:23:26;;;;;;;6.25;5.70;;;17.90;99.90;;;;;;4970506;28;20588;-52
2021/08/07 08:25:52;;;;;;;6.15;5.65;;;18.00;99.90;;;;;;4971705;28;20041;-53
2021/08/07 08:28:18;;;;;;;4.90;4.50;;;18.10;99.90;;;;;;4970225;28;20417;-51
2021/08/07 08:30:44;;;;;;;7.53;6.03;;;18.10;99.90;;;;;;4971781;28;20026;-49
2021/08/07 08:33:10;;;;;;;10.65;5.43;;;18.20;99.90;;;;;;4970675;28;20037;-52
2021/08/07 08:35:35;;;;;;;5.53;4.82;;;18.20;99.90;;;;;;4969905;28;20493;-51
2021/08/07 08:38:02;;;;;;;6.43;5.75;;;18.20;99.90;;;;;;4970468;28;20134;-52
2021/08/07 08:40:27;;;;;;;7.90;6.30;;;18.20;99.90;;;;;;4971330;28;20027;-53
2021/08/07 08:42:53;;;;;;;6.63;5.88;;;18.30;99.90;;;;;;4968889;28;20031;-53
2021/08/07 08:45:19;;;;;;;5.65;5.15;;;18.50;99.90;;;;;;4976989;28;20023;-54
2021/08/07 08:47:46;;;;;;;7.93;4.90;;;18.70;99.90;;;;;;4972074;28;20111;-54
2021/08/07 08:50:12;;;;;;;5.93;5.32;;;18.90;99.90;;;;;;4971506;28;20027;-52
2021/08/07 08:52:40;;;;;;;7.32;4.70;;;19.10;99.90;;;;;;4971615;28;20441;-52
2021/08/07 08:55:07;;;;;;;7.05;4.90;;;19.20;99.90;;;;;;4970162;28;20118;-53
2021/08/07 08:57:33;;;;;;;5.53;4.68;;;19.20;99.90;;;;;;4971975;28;20070;-53
2021/08/07 08:59:59;;;;;;;6.53;4.40;;;19.30;99.90;;;;;;4971442;28;20027;-55
2021/08/07 09:02:24;;;;;;;4.13;3.40;;;19.50;99.90;;;;;;4971652;28;20022;-52
2021/08/07 09:04:50;;;;;;;7.57;4.03;;;19.50;99.90;;;;;;4971035;28;20451;-51
2021/08/07 09:07:16;;;;;;;3.85;3.47;;;19.60;99.90;;;;;;4967069;28;20031;-52
2021/08/07 09:09:44;;;;;;;4.55;2.95;;;19.70;99.90;;;;;;4979164;28;20101;-52
2021/08/07 09:12:11;;;;;;;5.53;3.13;;;19.70;99.90;;;;;;4970626;28;20037;-50
2021/08/07 09:14:38;;;;;;;4.85;3.00;;;19.70;99.90;;;;;;4971579;28;20358;-49
2021/08/07 09:17:10;;;;;;;3.92;2.30;;;19.80;99.90;;;;;;4969363;28;20082;-53
2021/08/07 09:19:41;;;;;;;3.35;2.35;;;19.60;99.90;;;;;;4970703;28;20101;-51
2021/08/07 09:22:12;;;;;;;2.90;2.38;;;19.70;99.90;;;;;;4971257;28;20031;-49
2021/08/07 09:24:56;;;;;;;2.45;2.20;;;19.60;99.90;;;;;;4971056;28;20034;-51
2021/08/07 09:27:30;;;;;;;2.67;2.47;;;19.70;99.90;;;;;;4962534;28;20029;-50
2021/08/07 09:29:57;;;;;;;2.50;2.20;;;19.70;99.90;;;;;;4970346;28;20033;-52
2021/08/07 09:32:22;;;;;;;2.55;2.00;;;20.00;99.90;;;;;;4963586;28;20078;-49
2021/08/07 09:35:09;;;;;;;6.25;2.53;;;20.30;99.90;;;;;;4970871;28;20485;-48
2021/08/07 09:37:35;;;;;;;2.80;1.77;;;20.70;99.90;;;;;;4968001;28;20050;-50
2021/08/07 09:40:03;;;;;;;2.20;1.10;;;21.00;99.90;;;;;;4970661;28;20038;-49
2021/08/07 09:42:31;;;;;;;1.88;1.75;;;21.20;99.90;;;;;;4970503;28;20058;-53
2021/08/07 09:45:06;;;;;;;3.17;1.30;;;21.50;99.90;;;;;;4976901;28;20046;-51
2021/08/07 09:47:32;;;;;;;;;;;21.70;99.90;;;;;;4954420;28;20139;-51
2021/08/07 09:50:00;;;;;;;3.03;1.55;;;21.70;99.90;;;;;;4950674;28;19994;-50
2021/08/07 09:52:36;;;;;;;1.30;1.17;;;21.80;99.90;;;;;;4951297;28;20019;-50
2021/08/07 09:55:02;;;;;;;1.48;1.38;;;21.80;99.90;;;;;;4968513;28;20019;-50
2021/08/07 09:57:29;;;;;;;3.72;1.40;;;21.80;99.90;;;;;;4968990;28;20384;-51
2021/08/07 09:59:55;;;;;;;1.95;1.10;;;21.70;99.90;;;;;;4971872;28;20487;-55
2021/08/07 10:02:32;;;;;;;2.40;1.20;;;21.60;99.90;;;;;;4970474;28;20089;-53
2021/08/07 10:04:59;;;;;;;1.50;1.38;;;21.60;99.90;;;;;;4970305;28;20081;-53
2021/08/07 10:07:26;;;;;;;3.42;1.30;;;21.60;99.90;;;;;;4969717;28;20058;-51
2021/08/07 10:09:52;;;;;;;3.90;1.30;;;21.70;99.90;;;;;;4970170;28;20085;-52
2021/08/07 10:12:17;;;;;;;3.00;1.65;;;21.90;99.90;;;;;;4970695;28;20023;-53
2021/08/07 10:14:44;;;;;;;2.85;1.30;;;22.10;99.90;;;;;;4970161;28;20501;-54
2021/08/07 10:17:17;;;;;;;2.35;1.50;;;22.20;99.90;;;;;;4970167;28;20054;-54
2021/08/07 10:19:43;;;;;;;2.60;1.38;;;22.30;99.90;;;;;;4969655;28;20078;-51
2021/08/07 10:22:11;;;;;;;2.50;1.20;;;22.10;99.90;;;;;;4968267;28;20023;-52
2021/08/07 10:24:39;;;;;;;1.92;1.63;;;22.10;99.90;;;;;;4970362;28;20492;-56
2021/08/07 10:27:05;;;;;;;4.32;1.50;;;22.10;99.90;;;;;;4969744;28;20022;-52
2021/08/07 10:29:38;;;;;;;1.42;1.25;;;22.00;99.90;;;;;;4969153;28;20382;-53
2021/08/07 10:32:05;;;;;;;3.30;1.40;;;21.90;99.90;;;;;;4968269;28;20042;-51
2021/08/07 10:34:34;;;;;;;4.13;1.52;;;22.00;99.90;;;;;;4969768;28;20023;-55
2021/08/07 10:37:00;;;;;;;1.67;1.38;;;22.00;99.90;;;;;;4962033;28;20043;-55
2021/08/07 10:39:28;;;;;;;2.80;1.67;;;22.10;99.90;;;;;;4967530;28;20077;-57
2021/08/07 10:42:01;;;;;;;2.25;1.90;;;22.30;99.90;;;;;;4969541;28;20117;-56
2021/08/07 10:44:27;;;;;;;2.72;1.85;;;22.40;99.90;;;;;;4962084;28;20031;-56
2021/08/07 10:46:54;;;;;;;3.15;2.10;;;22.50;99.90;;;;;;4950680;28;20027;-56
2021/08/07 10:49:41;;;;;;;5.90;2.08;;;22.50;99.90;;;;;;4952937;28;20016;-55
2021/08/07 10:52:22;;;;;;;2.55;1.77;;;22.30;99.90;;;;;;4951449;28;20019;-57
2021/08/07 10:54:55;;;;;;;2.25;2.05;;;22.30;99.90;;;;;;4951217;28;20027;-56
2021/08/07 10:57:34;;;;;;;1.73;1.58;;;22.40;99.90;;;;;;4953351;28;20110;-57
2021/08/07 11:00:21;;;;;;;2.20;1.67;;;22.60;99.90;;;;;;4969219;28;20034;-56
2021/08/07 11:02:47;;;;;;;2.35;2.05;;;22.60;99.90;;;;;;4967386;28;20049;-56
2021/08/07 11:05:13;;;;;;;3.17;2.30;;;22.50;99.90;;;;;;4973311;28;20030;-53
2021/08/07 11:07:39;;;;;;;2.03;1.65;;;22.30;99.90;;;;;;4971730;28;20202;-55
2021/08/07 11:10:11;;;;;;;1.70;1.60;;;22.20;99.90;;;;;;4972782;28;20852;-56
2021/08/07 11:12:40;;;;;;;1.50;1.40;;;22.10;99.90;;;;;;4973329;28;20113;-56
2021/08/07 11:15:08;;;;;;;2.88;2.03;;;22.00;99.90;;;;;;4972588;28;20019;-53
2021/08/07 11:17:44;;;;;;;1.90;1.77;;;22.00;99.90;;;;;;4973199;28;20030;-56
2021/08/07 11:20:34;;;;;;;3.00;2.10;;;21.90;99.90;;;;;;5004014;23;20161;-54
2021/08/07 11:23:00;;;;;;;4.55;1.92;;;21.80;99.90;;;;;;4990355;28;20034;-52
2021/08/07 11:25:25;;;;;;;4.70;2.42;;;21.70;99.90;;;;;;4992219;28;20077;-55
2021/08/07 11:30:22;;;;;;;2.33;1.95;;;22.00;99.90;;;;;;4991979;28;20022;-52
2021/08/07 11:32:57;;;;;;;3.67;2.28;;;22.10;99.90;;;;;;4992532;28;20019;-55
2021/08/07 11:38:06;;;;;;;3.78;2.28;;;22.30;99.90;;;;;;4989834;28;20034;-54
2021/08/07 11:40:47;;;;;;;3.53;2.17;;;22.30;99.90;;;;;;4992352;28;20025;-53
2021/08/07 11:43:21;;;;;;;2.03;1.70;;;22.30;99.90;;;;;;4991597;28;20049;-53
2021/08/07 11:46:09;;;;;;;5.63;2.27;;;22.50;99.90;;;;;;4991090;28;20100;-52
2021/08/07 11:48:48;;;;;;;3.72;1.90;;;22.70;99.90;;;;;;4991526;28;20640;-56
2021/08/07 11:51:21;;;;;;;2.92;1.90;;;22.90;99.90;;;;;;4991294;28;20015;-52
2021/08/07 11:53:46;;;;;;;4.20;1.98;;;23.10;99.90;;;;;;4991628;28;20022;-52
2021/08/07 11:56:19;;;;;;;2.72;2.17;;;23.10;99.90;;;;;;4991266;28;20022;-53
2021/08/07 11:58:50;;;;;;;2.22;2.03;;;23.20;99.90;;;;;;4991370;28;20018;-53
2021/08/07 12:01:18;;;;;;;3.28;1.88;;;23.20;99.90;;;;;;4986165;28;20026;-56
2021/08/07 12:03:51;;;;;;;2.70;2.25;;;23.00;99.90;;;;;;4991477;28;20081;-52
2021/08/07 12:06:19;;;;;;;2.03;1.80;;;22.90;99.90;;;;;;4986443;28;20122;-51
2021/08/07 12:08:45;;;;;;;2.55;2.15;;;22.70;99.90;;;;;;4991863;28;20060;-51
2021/08/07 12:11:16;;;;;;;2.42;1.90;;;22.70;99.90;;;;;;4991562;28;20098;-57
2021/08/07 12:13:48;;;;;;;2.92;1.88;;;22.80;99.90;;;;;;4986743;28;20026;-52
2021/08/07 12:16:20;;;;;;;3.13;1.95;;;22.80;99.90;;;;;;4991231;28;20501;-53
2021/08/07 12:18:53;;;;;;;2.15;1.95;;;22.80;99.90;;;;;;4987550;28;20489;-51
2021/08/07 12:21:18;;;;;;;2.42;2.10;;;22.90;99.90;;;;;;4991470;28;20124;-51
2021/08/07 12:23:48;;;;;;;2.10;1.90;;;23.00;99.90;;;;;;4990857;28;20084;-53
2021/08/07 12:26:15;;;;;;;2.10;2.00;;;23.20;99.90;;;;;;4974714;28;20564;-54
2021/08/07 12:28:42;;;;;;;2.83;1.95;;;23.30;99.90;;;;;;4974669;28;20139;-52
2021/08/07 12:31:07;;;;;;;2.42;2.08;;;23.10;99.90;;;;;;4975311;28;20011;-55
2021/08/07 12:33:37;;;;;;;2.90;2.38;;;23.10;99.90;;;;;;4989686;28;20756;-52
2021/08/07 12:36:22;;;;;;;3.42;1.88;;;22.90;99.90;;;;;;4971827;28;20030;-51
2021/08/07 12:38:51;;;;;;;2.53;2.33;;;22.80;99.90;;;;;;4972509;28;20030;-54
2021/08/07 12:41:19;;;;;;;4.32;2.10;;;22.70;99.90;;;;;;4991202;28;20026;-51
2021/08/07 12:43:46;;;;;;;4.07;1.95;;;22.60;99.90;;;;;;4995253;28;20018;-52
2021/08/07 12:46:14;;;;;;;3.40;1.83;;;22.50;99.90;;;;;;4990204;28;20022;-52
2021/08/07 12:48:49;;;;;;;2.58;1.95;;;22.40;99.90;;;;;;4989797;28;20022;-56
2021/08/07 12:51:32;;;;;;;3.25;2.17;;;22.40;99.90;;;;;;4990089;28;20029;-54
2021/08/07 12:54:00;;;;;;;2.53;2.33;;;22.20;99.90;;;;;;4990442;28;20072;-52